Latest Coastal Weather Observations for Evans Head

IDN60701

Issued at 2:31 pm EST Saturday 30 May 2015 (issued every 10 minutes, with the page automatically refreshed every 10 minutes)

About coastal observations | Map of coastal stations | Coastal observations for NSW | Marine services | Other Formats
Station Details ID: 058212 Name: EVANS HEAD RAAF BOMBING RANGE AWS Lat: -29.18 Lon: 153.40 Height: 62.5 m
Data from the previous 72 hours. | See also: Recent months at Evans Head
Date/Time
EST
Temp

°C
Wind Pressure Rain
since 9am
mm
Weather Cloud Vis
km
Sea
Height
m
Swell
Dir
 
Speed
knots
Gust
knots
hPa Trend Height
m
Period
s
Dir
30/02:30pm 21.0 SE 3 5 1018.4 - 0.0 - - - - - - -
30/02:00pm 20.9 SE 4 5 1018.7 - 0.0 - - - - - - -
30/01:30pm 21.4 SSE 4 5 1018.9 - 0.0 - - - - - - -
30/01:00pm 21.1 SSE 3 5 1019.2 - 0.0 - - - - - - -
30/12:30pm 21.5 S 5 7 1019.6 - 0.0 - - - - - - -
30/12:00pm 21.0 S 6 7 1020.2 - 0.0 - - - - - - -
30/11:30am 20.7 S 6 7 1020.7 - 0.0 - - - - - - -
30/11:00am 21.1 SSE 5 7 1021.0 - 0.0 - - - - - - -
30/10:30am 21.3 S 3 4 1021.7 - 0.0 - - - - - - -
30/10:00am 20.2 SW 5 6 1022.4 - 0.0 - - - - - - -
30/09:30am 19.6 SW 5 7 1022.8 - 0.0 - - - - - - -
30/09:00am 19.0 SW 6 9 1022.8 - 0.0 - - - - - - -
30/08:30am 18.7 W 3 5 1022.6 - 0.0 - - - - - - -
30/08:00am 17.8 WSW 4 5 1022.3 - 0.0 - - - - - - -
30/07:30am 17.3 SW 5 7 1021.9 - 0.0 - - - - - - -
30/07:00am 17.0 SW 6 7 1021.9 - 0.0 - - - - - - -
30/06:30am 17.1 SW 7 9 1021.9 - 0.0 - - - - - - -
30/06:00am 17.2 SW 6 8 1021.4 - 0.0 - - - - - - -
30/05:30am 17.2 SSW 7 9 1021.2 - 0.0 - - - - - - -
30/05:00am 17.1 SW 7 9 1020.9 - 0.0 - - - - - - -
30/04:30am 17.2 SW 7 8 1020.5 - 0.0 - - - - - - -
30/04:00am 17.2 SW 5 6 1020.5 - 0.0 - - - - - - -
30/03:30am 17.2 SW 6 7 1020.7 - 0.0 - - - - - - -
30/03:00am 17.3 SSW 7 9 1020.8 - 0.0 - - - - - - -
30/02:30am 17.4 SSW 7 9 1021.0 - 0.0 - - - - - - -
30/02:00am 17.5 SSW 7 8 1021.3 - 0.0 - - - - - - -
30/01:30am 17.8 SSW 7 8 1021.5 - 0.0 - - - - - - -
30/01:00am 17.9 SW 7 8 1021.8 - 0.0 - - - - - - -
30/12:30am 18.2 SW 7 8 1021.6 - 0.0 - - - - - - -
30/12:00am 18.6 SW 5 5 1021.7 - 0.0 - - - - - - -
 
Date/Time
EST
Temp

°C
Wind Pressure Rain
since 9am
mm
Weather Cloud Vis
km
Sea
Height
m
Swell
Dir
 
Speed
knots
Gust
knots
hPa Trend Height
m
Period
s
Dir
29/11:30pm 18.4 WSW 5 6 1021.8 - 0.0 - - - - - - -
29/11:00pm 18.3 WSW 6 6 1022.2 - 0.0 - - - - - - -
29/10:30pm 18.5 SW 5 6 1022.5 - 0.0 - - - - - - -
29/10:00pm 18.8 SW 6 7 1022.6 - 0.0 - - - - - - -
29/09:30pm 18.4 SW 6 7 1022.3 - 0.0 - - - - - - -
29/09:00pm 19.3 SSW 7 9 1022.2 - 0.0 - - - - - - -
29/08:30pm 19.2 WNW 4 5 1022.1 - 0.0 - - - - - - -
29/08:00pm 18.3 NNW 4 5 1022.0 - 0.0 - - - - - - -
29/07:30pm 18.3 NNW 5 5 1021.9 - 0.0 - - - - - - -
29/07:00pm 18.4 NNW 5 6 1021.8 - 0.0 - - - - - - -
29/06:30pm 18.7 NNW 5 6 1021.5 - 0.0 - - - - - - -
29/06:00pm 19.0 N 5 8 1021.4 - 0.0 - - - - - - -
29/05:30pm 19.6 NW 4 5 1021.3 - 0.0 - - - - - - -
29/05:00pm 20.2 NW 4 5 1021.2 - 0.0 - - - - - - -
29/04:30pm 21.1 NW 4 4 1021.0 - 0.0 - - - - - - -
29/04:00pm 21.9 NW 4 5 1021.0 - 0.0 - - - - - - -
29/03:30pm 23.1 WNW 1 4 1020.9 - 0.0 - - - - - - -
29/03:00pm 24.3 NW 5 9 1020.7 - 0.0 - - - - - - -
29/02:30pm 25.7 WNW 4 8 1020.6 - 0.0 - - - - - - -
29/02:00pm 25.1 WNW 7 12 1020.6 - 0.0 - - - - - - -
29/01:30pm 25.0 WNW 8 13 1020.5 - 0.0 - - - - - - -
29/01:00pm 23.4 WNW 5 8 1020.7 - 0.0 - - - - - - -
29/12:30pm 22.6 W 8 13 1021.3 - 0.0 - - - - - - -
29/12:00pm 22.9 WNW 7 12 1021.3 - 0.0 - - - - - - -
29/11:30am 23.8 WNW 6 10 1021.7 - 0.0 - - - - - - -
29/11:00am 23.0 NW 8 13 1022.2 - 0.0 - - - - - - -
29/10:30am 23.0 NW 11 19 1022.7 - 0.0 - - - - - - -
29/10:00am 22.4 NW 7 15 1022.9 - 0.0 - - - - - - -
29/09:30am 21.4 NW 8 16 1022.8 - 0.0 - - - - - - -
29/09:00am 19.5 NW 10 15 1022.8 - 0.0 - - - - - - -
29/08:30am 16.7 NW 6 9 1023.0 - 0.0 - - - - - - -
29/08:00am 15.9 W 4 5 1023.1 - 0.0 - - - - - - -
29/07:30am 15.4 NW 5 8 1022.7 - 0.0 - - - - - - -
29/07:00am 14.6 NW 4 6 1022.4 - 0.0 - - - - - - -
29/06:30am 14.8 NW 7 10 1022.1 - 0.0 - - - - - - -
29/06:00am 15.5 NW 9 14 1021.8 - 0.0 - - - - - - -
29/05:30am 15.8 NW 8 11 1022.0 - 0.0 - - - - - - -
29/05:00am 15.4 NW 6 10 1021.9 - 0.0 - - - - - - -
29/04:30am 15.5 WNW 4 9 1021.9 - 0.0 - - - - - - -
29/04:00am 14.7 NW 7 10 1021.8 - 0.0 - - - - - - -
29/03:30am 14.4 NW 5 7 1021.9 - 0.0 - - - - - - -
29/03:00am 14.4 NW 5 7 1022.1 - 0.0 - - - - - - -
29/02:30am 14.5 NNW 6 8 1022.1 - 0.0 - - - - - - -
29/02:00am 15.0 NW 5 7 1022.5 - 0.0 - - - - - - -
29/01:30am 14.9 NW 6 9 1022.5 - 0.0 - - - - - - -
29/01:00am 15.2 NW 6 7 1022.7 - 0.0 - - - - - - -
29/12:30am 15.1 NW 5 6 1022.7 - 0.0 - - - - - - -
29/12:00am 15.1 NW 6 8 1022.8 - 0.0 - - - - - - -
 
Date/Time
EST
Temp

°C
Wind Pressure Rain
since 9am
mm
Weather Cloud Vis
km
Sea
Height
m
Swell
Dir
 
Speed
knots
Gust
knots
hPa Trend Height
m
Period
s
Dir
28/11:30pm 15.0 NNW 5 7 1023.0 - 0.0 - - - - - - -
28/11:00pm 15.2 NNW 6 8 1023.2 - 0.0 - - - - - - -
28/10:30pm 15.4 NNW 6 8 1023.5 - 0.0 - - - - - - -
28/10:00pm 15.7 NNW 6 7 1023.7 - 0.0 - - - - - - -
28/09:30pm 15.9 N 6 9 1023.5 - 0.0 - - - - - - -
28/09:00pm 15.9 NNW 6 7 1023.6 - 0.0 - - - - - - -
28/08:30pm 16.1 NNW 6 8 1023.7 - 0.0 - - - - - - -
28/08:00pm 16.1 NNW 6 7 1023.4 - 0.0 - - - - - - -
28/07:30pm 16.3 NNW 5 6 1023.2 - 0.0 - - - - - - -
28/07:00pm 17.0 N 7 9 1022.8 - 0.0 - - - - - - -
28/06:30pm 17.0 N 6 8 1023.0 - 0.0 - - - - - - -
28/06:00pm 17.4 N 7 9 1022.6 - 0.0 - - - - - - -
28/05:30pm 17.7 N 6 8 1022.4 - 0.0 - - - - - - -
28/05:00pm 18.2 N 5 7 1022.2 - 0.0 - - - - - - -
28/04:30pm 19.1 N 4 6 1022.1 - 0.0 - - - - - - -
28/04:00pm 20.0 N 3 6 1021.8 - 0.0 - - - - - - -
28/03:30pm 21.1 N 5 9 1021.8 - 0.0 - - - - - - -
28/03:00pm 22.0 NNE 3 7 1021.6 - 0.0 - - - - - - -
28/02:30pm 24.1 NNW 5 8 1021.6 - 0.0 - - - - - - -
28/02:00pm 24.8 NNW 5 7 1021.7 - 0.0 - - - - - - -
28/01:30pm 23.6 NNW 4 7 1021.7 - 0.0 - - - - - - -
28/01:00pm 23.4 NNW 3 7 1022.1 - 0.0 - - - - - - -
28/12:30pm 23.2 NW 3 7 1022.6 - 0.0 - - - - - - -
28/12:00pm 22.3 WNW 3 7 1023.3 - 0.0 - - - - - - -
28/11:30am 23.6 NW 4 7 1023.9 - 0.0 - - - - - - -
28/11:00am 22.9 NNW 4 8 1024.3 - 0.0 - - - - - - -
28/10:30am 20.6 WSW 3 5 1024.7 - 0.0 - - - - - - -
28/10:00am 18.8 W 2 4 1024.7 - 0.0 - - - - - - -
28/09:30am 17.3 SW 4 7 1024.9 - 0.0 - - - - - - -
28/09:00am 16.9 W 5 7 1024.7 - 0.2 - - - - - - -
28/08:30am 16.4 W 4 7 1024.7 - 0.2 - - - - - - -
28/08:00am 15.6 WSW 4 6 1024.4 - 0.2 - - - - - - -
28/07:30am 15.0 W 6 7 1024.0 - 0.0 - - - - - - -
28/07:00am 13.9 W 6 8 1023.7 - 0.0 - - - - - - -
28/06:30am 13.0 WNW 5 5 1023.3 - 0.0 - - - - - - -
28/06:00am 11.9 N 3 4 1023.4 - 0.0 - - - - - - -
28/05:30am 13.2 W 3 4 1022.8 - 0.0 - - - - - - -
28/05:00am 14.2 WSW 5 7 1023.1 - 0.0 - - - - - - -
28/04:30am 14.2 W 4 6 1022.7 - 0.0 - - - - - - -
28/04:00am 13.2 WNW 4 6 1022.6 - 0.0 - - - - - - -
28/03:30am 14.7 W 7 9 1023.1 - 0.0 - - - - - - -
28/03:00am 14.7 WSW 5 7 1022.8 - 0.0 - - - - - - -
28/02:30am 14.8 SSW 5 6 1022.6 - 0.0 - - - - - - -
28/02:00am 15.3 WSW 7 8 1022.9 - 0.0 - - - - - - -
28/01:30am 14.6 NW 4 5 1022.9 - 0.0 - - - - - - -
28/01:00am 14.8 NW 5 5 1023.0 - 0.0 - - - - - - -
28/12:30am 15.5 W 5 6 1023.5 - 0.0 - - - - - - -
28/12:00am 15.2 NW 5 6 1023.5 - 0.0 - - - - - - -
 
Date/Time
EST
Temp

°C
Wind Pressure Rain
since 9am
mm
Weather Cloud Vis
km
Sea
Height
m
Swell
Dir
 
Speed
knots
Gust
knots
hPa Trend Height
m
Period
s
Dir
27/11:30pm 15.7 WNW 5 6 1023.3 - 0.0 - - - - - - -
27/11:00pm 16.3 W 4 5 1023.4 - 0.0 - - - - - - -
27/10:30pm 16.2 W 5 6 1023.3 - 0.0 - - - - - - -
27/10:00pm 16.5 W 1 6 1023.2 - 0.0 - - - - - - -
27/09:30pm 16.5 W 2 4 1023.3 - 0.0 - - - - - - -
27/09:00pm 16.9 NW 3 3 1023.4 - 0.0 - - - - - - -
27/08:30pm 16.3 NW 3 4 1023.4 - 0.0 - - - - - - -
27/08:00pm 15.9 NNW 4 4 1023.3 - 0.0 - - - - - - -
27/07:30pm 16.4 NNE 6 7 1023.2 - 0.0 - - - - - - -
27/07:00pm 17.0 NE 6 7 1023.0 - 0.0 - - - - - - -
27/06:30pm 17.2 NE 5 7 1022.9 - 0.0 - - - - - - -
27/06:00pm 17.6 NE 5 6 1022.8 - 0.0 - - - - - - -
27/05:30pm 17.8 ENE 4 5 1022.8 - 0.0 - - - - - - -
27/05:00pm 17.9 E 4 5 1022.7 - 0.0 - - - - - - -
27/04:30pm 18.8 E 4 5 1022.4 - 0.0 - - - - - - -
27/04:00pm 19.0 ESE 5 6 1022.3 - 0.0 - - - - - - -
27/03:30pm 19.2 ESE 5 7 1022.1 - 0.0 - - - - - - -
27/03:00pm 19.2 E 5 7 1022.0 - 0.0 - - - - - - -

Other Formats:

Comma delimited format used in spreadsheet applications
http://www.bom.gov.au/fwo/IDN60701/IDN60701.94598.axf

JavaScript Object Notation format (JSON) in row-major order
http://www.bom.gov.au/fwo/IDN60701/IDN60701.94598.json